Time;durP1;ratioP1;P1;durP2;ratioP2;P2;SDS_P1;SDS_P2;PMS_P1;PMS_P2;Temp;Humidity;BMP_temperature;BMP_pressure;BME280_temperature;BME280_humidity;BME280_pressure;Samples;Min_cycle;Max_cycle;Signal;HPM_P1;HPM_P2
2021/03/30 00:01:57;;;;;;;9.05;6.10;;;9.40;94.40;;;;;;5035295;28;20029;-86
2021/03/30 00:04:25;;;;;;;9.48;6.20;;;9.40;94.50;;;;;;5042044;28;20026;-87
2021/03/30 00:06:51;;;;;;;8.20;5.78;;;9.40;94.60;;;;;;5039736;28;20024;-87
2021/03/30 00:09:17;;;;;;;8.90;5.55;;;9.40;94.60;;;;;;5043808;28;20035;-87
2021/03/30 00:11:43;;;;;;;9.18;6.18;;;9.40;94.70;;;;;;5045363;28;20035;-87
2021/03/30 00:14:11;;;;;;;10.20;6.72;;;9.30;94.70;;;;;;5049863;28;20055;-86
2021/03/30 00:16:37;;;;;;;8.80;6.07;;;9.30;94.90;;;;;;5033730;28;20040;-86
2021/03/30 00:19:04;;;;;;;9.95;6.40;;;9.20;95.00;;;;;;5052350;28;20033;-88
2021/03/30 00:21:30;;;;;;;8.55;5.85;;;9.20;95.00;;;;;;5064297;28;20031;-87
2021/03/30 00:23:56;;;;;;;10.38;5.80;;;9.20;95.10;;;;;;5019520;28;20124;-86
2021/03/30 00:26:22;;;;;;;9.60;5.82;;;9.20;95.10;;;;;;5031275;28;20479;-87
2021/03/30 00:28:47;;;;;;;9.63;5.90;;;9.20;95.10;;;;;;5040121;28;20469;-88
2021/03/30 00:31:13;;;;;;;7.22;5.45;;;9.10;95.20;;;;;;5039866;28;20041;-88
2021/03/30 00:33:42;;;;;;;7.43;5.55;;;9.10;95.20;;;;;;5046832;28;20024;-87
2021/03/30 00:36:08;;;;;;;9.45;5.65;;;9.10;95.20;;;;;;5032917;28;20068;-87
2021/03/30 00:38:33;;;;;;;10.55;6.22;;;9.20;95.30;;;;;;5037485;28;20067;-87
2021/03/30 00:40:59;;;;;;;9.73;5.63;;;9.10;95.20;;;;;;5041488;28;20029;-87
2021/03/30 00:43:26;;;;;;;8.82;5.57;;;9.10;95.30;;;;;;5027780;28;20492;-88
2021/03/30 00:45:59;;;;;;;7.75;5.68;;;9.00;95.40;;;;;;5034690;28;20051;-88
2021/03/30 00:48:27;;;;;;;9.45;5.70;;;9.00;95.50;;;;;;5045938;28;20460;-87
2021/03/30 00:50:55;;;;;;;9.00;6.03;;;9.00;95.60;;;;;;5039531;28;20042;-87
2021/03/30 00:53:21;;;;;;;8.13;5.97;;;8.90;95.60;;;;;;5022239;28;20052;-87
2021/03/30 00:55:47;;;;;;;8.35;5.85;;;8.80;95.70;;;;;;5041560;28;20369;-88
2021/03/30 00:58:13;;;;;;;9.23;6.68;;;8.80;95.80;;;;;;5054153;28;20099;-88
2021/03/30 01:00:39;;;;;;;8.82;6.20;;;8.60;96.00;;;;;;5035964;28;20476;-87
2021/03/30 01:03:05;;;;;;;9.00;5.95;;;8.50;96.10;;;;;;5054354;28;20028;-88
2021/03/30 01:05:31;;;;;;;11.25;6.25;;;8.50;96.30;;;;;;5020158;28;20087;-87
2021/03/30 01:08:16;;;;;;;8.95;6.22;;;8.40;96.40;;;;;;5035953;28;20029;-88
2021/03/30 01:10:52;;;;;;;9.48;6.47;;;8.30;96.50;;;;;;5036413;28;20032;-87
2021/03/30 01:13:36;;;;;;;9.10;5.75;;;8.30;96.70;;;;;;5036361;28;20372;-88
2021/03/30 01:16:08;;;;;;;10.30;6.43;;;8.20;96.70;;;;;;5036078;28;20033;-87
2021/03/30 01:19:11;;;;;;;10.15;6.57;;;8.10;97.20;;;;;;5034973;28;20036;-89
2021/03/30 01:21:49;;;;;;;9.95;6.05;;;8.10;97.00;;;;;;5036216;28;20473;-89
2021/03/30 01:24:31;;;;;;;9.27;6.28;;;8.00;97.10;;;;;;5036435;28;20068;-88
2021/03/30 01:27:08;;;;;;;10.07;6.93;;;7.90;97.20;;;;;;5035998;28;20045;-89
2021/03/30 01:29:47;;;;;;;9.65;6.28;;;7.90;97.30;;;;;;5054023;28;20037;-89
2021/03/30 01:32:19;;;;;;;10.95;6.05;;;7.80;97.40;;;;;;5054076;28;20029;-89
2021/03/30 01:34:48;;;;;;;8.80;6.53;;;7.80;97.40;;;;;;5054107;28;20067;-89
2021/03/30 01:37:17;;;;;;;9.25;6.05;;;7.80;97.50;;;;;;5036446;28;20048;-88
2021/03/30 01:39:45;;;;;;;9.82;6.35;;;7.70;97.60;;;;;;5036454;28;20059;-90
2021/03/30 01:42:12;;;;;;;8.50;5.53;;;7.70;97.70;;;;;;5035289;28;20041;-89
2021/03/30 01:44:40;;;;;;;10.80;6.85;;;7.60;97.70;;;;;;5053738;28;20402;-89
2021/03/30 01:47:08;;;;;;;8.32;5.90;;;7.60;97.70;;;;;;5035754;28;20111;-87
2021/03/30 01:49:38;;;;;;;8.57;6.45;;;7.60;97.70;;;;;;5035996;28;20505;-89
2021/03/30 01:52:09;;;;;;;8.65;6.13;;;7.60;97.80;;;;;;5035215;28;20041;-88
2021/03/30 01:54:36;;;;;;;14.23;6.72;;;7.60;97.90;;;;;;5030746;28;20037;-88
2021/03/30 01:57:05;;;;;;;8.95;6.03;;;7.50;98.00;;;;;;5052537;28;20033;-88
2021/03/30 01:59:32;;;;;;;9.40;6.15;;;7.40;98.20;;;;;;5032260;28;20049;-88
2021/03/30 02:02:01;;;;;;;8.32;5.60;;;7.40;98.30;;;;;;5035539;28;20033;-88
2021/03/30 02:04:30;;;;;;;8.48;5.72;;;7.30;98.40;;;;;;5034132;28;20099;-88
2021/03/30 02:06:58;;;;;;;8.55;6.15;;;7.30;98.50;;;;;;5019390;28;20473;-88
2021/03/30 02:09:31;;;;;;;9.40;5.97;;;7.30;98.50;;;;;;5035038;28;20090;-88
2021/03/30 02:12:01;;;;;;;8.50;5.87;;;7.20;98.50;;;;;;5035607;28;20033;-88
2021/03/30 02:14:28;;;;;;;8.82;6.20;;;7.20;98.60;;;;;;5036691;28;20124;-89
2021/03/30 02:16:54;;;;;;;8.73;6.05;;;7.20;98.70;;;;;;5035819;28;20037;-88
2021/03/30 02:19:45;;;;;;;10.70;6.45;;;7.30;98.70;;;;;;5035357;28;20075;-89
2021/03/30 02:22:51;;;;;;;8.10;5.47;;;7.20;98.70;;;;;;5034929;28;20048;-88
2021/03/30 02:25:19;;;;;;;9.20;5.85;;;7.10;98.80;;;;;;5023651;28;20060;-88
2021/03/30 02:27:47;;;;;;;7.95;5.85;;;7.10;99.00;;;;;;5035043;28;20045;-88
2021/03/30 02:30:16;;;;;;;10.05;5.90;;;7.10;99.10;;;;;;5037726;28;20031;-88
2021/03/30 02:32:43;;;;;;;9.27;6.30;;;7.00;99.10;;;;;;5057171;28;20029;-88
2021/03/30 02:35:11;;;;;;;8.45;6.35;;;6.90;99.20;;;;;;5038712;28;20037;-88
2021/03/30 02:37:38;;;;;;;10.25;5.97;;;6.90;99.30;;;;;;5038926;28;20029;-88
2021/03/30 02:40:08;;;;;;;8.95;6.07;;;6.90;99.30;;;;;;5006452;28;20045;-88
2021/03/30 02:42:36;;;;;;;9.25;6.47;;;6.80;99.40;;;;;;5039216;28;20128;-88
2021/03/30 02:45:04;;;;;;;11.13;6.38;;;6.80;99.50;;;;;;5039023;28;20373;-88
2021/03/30 02:47:32;;;;;;;8.80;6.25;;;6.70;99.60;;;;;;5038780;28;20425;-88
2021/03/30 02:49:59;;;;;;;10.30;6.32;;;6.60;99.70;;;;;;5038844;28;20499;-88
2021/03/30 02:52:26;;;;;;;9.10;6.47;;;6.60;99.80;;;;;;5056810;28;20346;-89
2021/03/30 02:54:53;;;;;;;8.57;6.47;;;6.60;99.80;;;;;;5038690;28;20041;-89
2021/03/30 02:57:20;;;;;;;10.35;6.50;;;6.60;99.90;;;;;;5037868;28;20029;-88
2021/03/30 02:59:48;;;;;;;11.10;6.82;;;6.50;99.90;;;;;;5019047;28;20466;-89
2021/03/30 03:02:15;;;;;;;10.60;6.55;;;6.50;99.90;;;;;;5018931;28;20029;-88
2021/03/30 03:04:46;;;;;;;10.07;6.28;;;6.50;99.90;;;;;;5002357;28;20041;-88
2021/03/30 03:07:12;;;;;;;12.05;6.63;;;6.50;99.90;;;;;;5002980;28;20041;-88
2021/03/30 03:09:40;;;;;;;9.35;5.90;;;6.40;99.90;;;;;;5037082;28;20067;-88
2021/03/30 03:12:08;;;;;;;8.98;6.13;;;6.40;99.90;;;;;;5037519;28;20030;-88
2021/03/30 03:14:36;;;;;;;12.35;7.03;;;6.40;99.90;;;;;;5018779;28;20120;-88
2021/03/30 03:17:04;;;;;;;11.95;7.03;;;6.30;99.90;;;;;;5018800;28;20033;-88
2021/03/30 03:19:30;;;;;;;10.27;6.55;;;6.30;99.90;;;;;;5018473;28;20040;-88
2021/03/30 03:21:56;;;;;;;10.70;7.03;;;6.20;99.90;;;;;;5018660;28;20029;-89
2021/03/30 03:24:23;;;;;;;12.57;7.05;;;6.20;99.90;;;;;;5018543;28;20034;-88
2021/03/30 03:26:50;;;;;;;10.30;6.38;;;6.10;99.90;;;;;;5018370;28;20084;-88
2021/03/30 03:29:17;;;;;;;11.35;6.70;;;6.10;99.90;;;;;;5018361;28;20033;-89
2021/03/30 03:31:44;;;;;;;9.45;6.55;;;6.10;99.90;;;;;;5018308;28;20036;-88
2021/03/30 03:34:11;;;;;;;10.52;7.00;;;6.10;99.90;;;;;;5018363;28;20038;-88
2021/03/30 03:36:42;;;;;;;10.05;6.45;;;6.20;99.90;;;;;;5035656;28;20095;-88
2021/03/30 03:39:10;;;;;;;8.48;5.95;;;6.10;99.90;;;;;;5035419;28;20512;-88
2021/03/30 03:41:38;;;;;;;10.30;6.22;;;6.10;99.90;;;;;;5017224;28;20033;-89
2021/03/30 03:44:05;;;;;;;8.20;5.90;;;6.10;99.90;;;;;;5035276;28;20044;-88
2021/03/30 03:46:31;;;;;;;9.35;6.60;;;6.10;99.90;;;;;;5036011;28;20037;-88
2021/03/30 03:48:58;;;;;;;10.23;6.18;;;6.10;99.90;;;;;;5035529;28;20071;-88
2021/03/30 03:51:28;;;;;;;9.15;6.40;;;6.10;99.90;;;;;;5018097;28;20488;-89
2021/03/30 03:53:56;;;;;;;10.35;6.78;;;6.10;99.90;;;;;;5017883;28;20091;-88
2021/03/30 03:56:41;;;;;;;9.13;6.03;;;6.10;99.90;;;;;;5017578;28;20413;-88
2021/03/30 03:59:18;;;;;;;9.35;6.63;;;6.00;99.90;;;;;;5032720;28;20053;-88
2021/03/30 04:01:53;;;;;;;10.82;6.78;;;6.00;99.90;;;;;;5037843;28;20124;-88
2021/03/30 04:04:42;;;;;;;10.90;6.55;;;5.90;99.90;;;;;;5037513;28;20040;-88
2021/03/30 04:07:41;;;;;;;11.32;7.07;;;5.90;99.90;;;;;;5037074;28;20044;-89
2021/03/30 04:10:09;;;;;;;9.25;6.28;;;5.90;99.90;;;;;;5020206;28;20078;-88
2021/03/30 04:12:38;;;;;;;10.68;6.75;;;5.80;99.90;;;;;;5037356;28;20060;-88
2021/03/30 04:15:05;;;;;;;10.25;6.53;;;5.80;99.90;;;;;;5037263;28;20080;-88
2021/03/30 04:17:33;;;;;;;13.43;7.18;;;5.80;99.90;;;;;;5054423;28;20029;-88
2021/03/30 04:19:58;;;;;;;10.77;6.63;;;5.80;99.90;;;;;;5055016;28;20061;-88
2021/03/30 04:22:24;;;;;;;10.63;7.35;;;5.80;99.90;;;;;;5037490;28;20048;-89
2021/03/30 04:24:50;;;;;;;9.75;6.55;;;5.70;99.90;;;;;;5037054;28;20033;-88
2021/03/30 04:27:23;;;;;;;10.25;6.80;;;5.70;99.90;;;;;;5036921;28;20060;-89
2021/03/30 04:29:59;;;;;;;10.10;6.93;;;5.70;99.90;;;;;;5054475;28;20041;-88
2021/03/30 04:32:25;;;;;;;11.55;6.70;;;5.70;99.90;;;;;;5036840;28;20033;-89
2021/03/30 04:34:51;;;;;;;11.90;7.30;;;5.60;99.90;;;;;;5037174;28;20037;-88
2021/03/30 04:37:19;;;;;;;10.93;7.13;;;5.50;99.90;;;;;;5036586;28;20129;-88
2021/03/30 04:39:45;;;;;;;13.88;7.72;;;5.50;99.90;;;;;;5054389;28;20041;-88
2021/03/30 04:42:12;;;;;;;13.60;7.78;;;5.40;99.90;;;;;;5054399;28;20108;-88
2021/03/30 04:44:43;;;;;;;11.20;7.60;;;5.40;99.90;;;;;;5037036;28;20437;-88
2021/03/30 04:47:10;;;;;;;11.85;7.65;;;5.30;99.90;;;;;;5036574;28;20040;-89
2021/03/30 04:49:36;;;;;;;13.43;8.27;;;5.30;99.90;;;;;;5054420;28;20037;-88
2021/03/30 04:52:25;;;;;;;12.07;7.75;;;5.20;99.90;;;;;;5036187;28;20078;-88
2021/03/30 04:55:14;;;;;;;12.23;7.93;;;5.20;99.90;;;;;;5054212;28;20033;-88
2021/03/30 04:57:42;;;;;;;13.45;7.70;;;5.20;99.90;;;;;;5022291;28;20061;-88
2021/03/30 05:00:11;;;;;;;11.65;7.60;;;5.20;99.90;;;;;;5036314;28;20087;-88
2021/03/30 05:02:40;;;;;;;13.57;8.20;;;5.20;99.90;;;;;;5036879;28;20388;-88
2021/03/30 05:05:07;;;;;;;10.38;6.75;;;5.20;99.90;;;;;;5036128;28;20032;-87
2021/03/30 05:07:34;;;;;;;12.70;8.02;;;5.20;99.90;;;;;;5035823;28;20036;-88
2021/03/30 05:10:00;;;;;;;11.77;7.38;;;5.20;99.90;;;;;;5036171;28;20086;-87
2021/03/30 05:12:26;;;;;;;11.60;8.15;;;5.20;99.90;;;;;;5036055;28;20025;-88
2021/03/30 05:14:52;;;;;;;12.30;7.28;;;5.20;99.90;;;;;;5036017;28;20101;-87
2021/03/30 05:17:18;;;;;;;12.65;7.28;;;5.20;99.90;;;;;;5035980;28;20033;-88
2021/03/30 05:19:44;;;;;;;11.98;7.60;;;5.20;99.90;;;;;;5018431;28;20041;-88
2021/03/30 05:22:10;;;;;;;10.52;6.90;;;5.30;99.90;;;;;;5033683;28;20417;-88
2021/03/30 05:24:38;;;;;;;13.23;7.72;;;5.30;99.90;;;;;;5000955;28;20037;-88
2021/03/30 05:27:05;;;;;;;12.18;7.68;;;5.30;99.90;;;;;;5017320;28;20071;-87
2021/03/30 05:29:42;;;;;;;12.82;7.63;;;5.30;99.90;;;;;;5033438;28;20381;-87
2021/03/30 05:32:12;;;;;;;12.20;7.45;;;5.30;99.90;;;;;;5037420;28;20040;-88
2021/03/30 05:34:40;;;;;;;12.65;8.10;;;5.20;99.90;;;;;;5038141;28;20037;-87
2021/03/30 05:37:06;;;;;;;13.15;7.63;;;5.20;99.90;;;;;;5041089;28;20449;-88
2021/03/30 05:39:43;;;;;;;12.95;7.72;;;5.20;99.90;;;;;;5060969;28;20043;-88
2021/03/30 05:42:12;;;;;;;12.10;8.15;;;5.20;99.90;;;;;;5039637;28;20036;-87
2021/03/30 05:44:41;;;;;;;14.40;8.23;;;5.20;99.90;;;;;;5028450;28;20048;-88
2021/03/30 05:47:14;;;;;;;13.50;8.27;;;5.20;99.90;;;;;;5071805;28;20519;-88
2021/03/30 05:49:41;;;;;;;13.05;7.95;;;5.20;99.90;;;;;;5054112;28;20044;-89
2021/03/30 05:52:22;;;;;;;12.60;8.40;;;5.30;99.90;;;;;;5055263;28;20033;-89
2021/03/30 05:54:55;;;;;;;13.60;8.55;;;5.30;99.90;;;;;;5041014;28;20033;-89
2021/03/30 05:57:28;;;;;;;11.73;7.60;;;5.40;99.90;;;;;;5055688;28;20032;-87
2021/03/30 06:00:14;;;;;;;14.55;8.68;;;5.40;99.90;;;;;;5055300;28;20140;-88
2021/03/30 06:02:45;;;;;;;12.60;8.13;;;5.50;99.90;;;;;;5053813;28;20029;-88
2021/03/30 06:05:17;;;;;;;13.32;8.25;;;5.50;99.90;;;;;;5041324;28;20043;-88
2021/03/30 06:07:44;;;;;;;14.13;8.00;;;5.50;99.90;;;;;;5026908;28;20067;-89
2021/03/30 06:10:24;;;;;;;15.23;9.13;;;5.50;99.90;;;;;;5060143;28;20041;-88
2021/03/30 06:12:56;;;;;;;14.65;8.80;;;5.60;99.90;;;;;;5077510;28;20492;-89
2021/03/30 06:15:37;;;;;;;13.50;8.15;;;5.60;99.90;;;;;;5059361;28;20036;-89
2021/03/30 06:18:23;;;;;;;14.18;8.15;;;5.70;99.90;;;;;;5077511;28;20161;-89
2021/03/30 06:21:12;;;;;;;12.75;8.68;;;5.70;99.90;;;;;;5059054;28;20040;-89
2021/03/30 06:23:51;;;;;;;13.73;8.02;;;5.80;99.90;;;;;;5070440;28;20025;-89
2021/03/30 06:26:21;;;;;;;12.95;8.13;;;5.90;99.90;;;;;;5058723;28;20119;-89
2021/03/30 06:28:46;;;;;;;13.13;8.02;;;6.00;99.90;;;;;;5076696;28;20059;-91
2021/03/30 06:31:20;;;;;;;11.95;7.75;;;6.10;99.90;;;;;;5059231;28;20468;-89
2021/03/30 06:33:59;;;;;;;14.10;8.88;;;6.10;99.90;;;;;;5077244;28;20358;-89
2021/03/30 06:36:32;;;;;;;11.15;7.43;;;6.30;99.90;;;;;;5058827;28;20052;-88
2021/03/30 06:39:18;;;;;;;12.82;8.05;;;6.30;99.90;;;;;;5042520;28;20102;-89
2021/03/30 06:41:56;;;;;;;11.88;7.72;;;6.40;99.90;;;;;;5056505;28;20032;-88
2021/03/30 06:44:31;;;;;;;12.02;8.25;;;6.60;99.90;;;;;;5059032;28;20128;-89
2021/03/30 06:47:19;;;;;;;13.43;7.85;;;6.60;99.90;;;;;;5059008;28;20119;-89
2021/03/30 06:50:15;;;;;;;14.20;8.40;;;6.80;99.90;;;;;;5059510;28;20431;-88
2021/03/30 06:52:44;;;;;;;14.68;7.93;;;6.90;99.90;;;;;;5053610;28;20083;-89
2021/03/30 06:55:13;;;;;;;12.68;7.20;;;7.00;99.90;;;;;;5053285;28;20471;-89
2021/03/30 06:57:50;;;;;;;13.32;8.68;;;7.20;99.90;;;;;;5064527;28;20025;-89
2021/03/30 07:00:26;;;;;;;14.85;7.68;;;7.30;99.90;;;;;;5041002;28;20049;-89
2021/03/30 07:02:57;;;;;;;13.20;8.32;;;7.40;99.90;;;;;;5044264;28;20040;-90
2021/03/30 07:05:57;;;;;;;15.13;9.20;;;7.50;99.90;;;;;;5024658;28;20128;-89
2021/03/30 07:08:27;;;;;;;15.82;9.27;;;7.70;99.90;;;;;;5016387;28;20044;-90
2021/03/30 07:10:55;;;;;;;16.45;10.00;;;7.80;99.90;;;;;;5029568;28;20099;-89
2021/03/30 07:13:29;;;;;;;22.08;11.88;;;8.00;99.90;;;;;;5043186;28;20029;-89
2021/03/30 07:16:29;;;;;;;18.77;10.80;;;8.20;99.90;;;;;;5030433;28;20029;-90
2021/03/30 07:19:00;;;;;;;17.30;11.20;;;8.40;99.90;;;;;;5020780;28;20429;-90
2021/03/30 07:21:33;;;;;;;16.05;10.32;;;8.50;99.90;;;;;;5045861;28;20127;-89
2021/03/30 07:24:06;;;;;;;21.00;11.40;;;8.70;99.90;;;;;;5032648;28;20507;-90
2021/03/30 07:26:56;;;;;;;18.35;11.30;;;8.80;99.90;;;;;;5049439;28;20377;-90
2021/03/30 07:29:37;;;;;;;18.63;10.73;;;9.10;99.90;;;;;;5044793;28;20035;-91
2021/03/30 07:32:16;;;;;;;17.48;10.93;;;9.20;99.90;;;;;;5044789;28;20094;-92
2021/03/30 07:34:48;;;;;;;21.23;12.00;;;9.30;99.90;;;;;;5026327;28;20051;-90
2021/03/30 07:37:27;;;;;;;18.55;11.15;;;9.30;99.90;;;;;;5047051;28;20044;-90
2021/03/30 07:40:03;;;;;;;20.15;12.30;;;9.50;99.90;;;;;;5015740;28;20056;-91
2021/03/30 07:42:31;;;;;;;20.30;11.55;;;9.60;99.90;;;;;;5034785;28;20037;-91
2021/03/30 07:45:07;;;;;;;20.17;12.43;;;9.70;99.90;;;;;;5000882;28;20041;-90
2021/03/30 07:47:41;;;;;;;20.73;11.90;;;9.80;99.90;;;;;;5017577;28;20543;-90
2021/03/30 07:50:14;;;;;;;19.58;11.82;;;10.00;99.90;;;;;;5034883;28;20105;-90
2021/03/30 07:52:45;;;;;;;;;;;10.10;99.90;;;;;;5041233;28;20032;-92
2021/03/30 07:55:22;;;;;;;20.90;12.70;;;10.20;99.90;;;;;;5020611;28;19916;-90
2021/03/30 07:57:55;;;;;;;20.92;11.23;;;10.40;99.90;;;;;;5056685;28;20043;-90
2021/03/30 08:00:37;;;;;;;19.77;11.52;;;10.60;99.90;;;;;;5048546;28;20045;-90
2021/03/30 08:03:07;;;;;;;21.92;13.45;;;10.70;99.90;;;;;;5057624;28;20467;-90
2021/03/30 08:05:59;;;;;;;23.58;12.95;;;10.80;99.90;;;;;;5057880;28;20439;-90
2021/03/30 08:08:26;;;;;;;21.35;11.75;;;10.90;99.90;;;;;;5044363;28;20036;-90
2021/03/30 08:10:53;;;;;;;22.75;13.32;;;11.00;99.90;;;;;;5034508;28;20079;-92
2021/03/30 08:13:36;;;;;;;25.08;14.00;;;11.20;99.90;;;;;;5021860;28;20037;-89
2021/03/30 08:16:14;;;;;;;22.83;13.18;;;11.40;99.80;;;;;;5042690;28;20074;-90
2021/03/30 08:19:07;;;;;;;23.42;13.70;;;11.50;99.70;;;;;;5042437;28;20037;-90
2021/03/30 08:21:57;;;;;;;25.73;14.70;;;11.60;99.70;;;;;;5044065;28;20029;-91
2021/03/30 08:24:25;;;;;;;30.95;19.65;;;11.80;99.50;;;;;;5034124;28;20029;-91
2021/03/30 08:26:51;;;;;;;28.02;17.27;;;12.00;99.50;;;;;;5071111;28;20043;-91
2021/03/30 08:29:24;;;;;;;26.95;16.42;;;12.10;99.40;;;;;;5031586;28;20050;-91
2021/03/30 08:31:53;;;;;;;33.65;18.33;;;12.30;99.20;;;;;;5047483;28;20057;-92
2021/03/30 08:34:27;;;;;;;28.70;19.08;;;12.50;99.10;;;;;;5025684;28;20028;-90
2021/03/30 08:37:06;;;;;;;;;;;12.60;99.00;;;;;;5031286;28;20052;-89
2021/03/30 08:39:35;;;;;;;28.90;17.42;;;12.80;99.00;;;;;;5046726;28;19916;-90
2021/03/30 08:42:15;;;;;;;32.30;19.10;;;12.90;98.90;;;;;;5039966;28;20102;-91
2021/03/30 08:44:59;;;;;;;26.98;17.63;;;13.20;98.50;;;;;;5049228;28;20195;-90
2021/03/30 08:47:48;;;;;;;31.55;19.60;;;13.40;98.50;;;;;;5037894;28;20040;-91
2021/03/30 08:50:26;;;;;;;32.33;19.38;;;13.50;98.20;;;;;;5038127;28;20033;-91
2021/03/30 08:52:53;;;;;;;34.08;21.15;;;13.70;97.90;;;;;;5036611;28;20446;-90
2021/03/30 08:55:40;;;;;;;31.38;19.83;;;13.80;97.70;;;;;;5036001;28;20531;-89
2021/03/30 08:58:12;;;;;;;27.52;18.85;;;13.90;97.70;;;;;;5053362;28;20068;-89
2021/03/30 09:00:41;;;;;;;25.92;16.90;;;13.90;97.60;;;;;;5036424;28;20363;-90
2021/03/30 09:03:31;;;;;;;26.70;16.88;;;14.00;97.80;;;;;;5015854;28;20026;-91
2021/03/30 09:06:32;;;;;;;30.70;19.17;;;14.10;97.50;;;;;;5015872;28;20099;-92
2021/03/30 09:09:20;;;;;;;29.08;17.60;;;14.10;97.40;;;;;;5006595;28;20429;-91
2021/03/30 09:11:47;;;;;;;35.72;21.08;;;14.30;97.30;;;;;;5034900;28;20099;-91
2021/03/30 09:14:18;;;;;;;33.15;21.15;;;14.40;96.70;;;;;;5000951;28;20069;-90
2021/03/30 09:17:12;;;;;;;32.60;20.38;;;14.60;96.40;;;;;;5017731;28;20065;-91
2021/03/30 09:19:47;;;;;;;30.40;18.38;;;14.70;96.30;;;;;;5017071;28;20041;-91
2021/03/30 09:22:25;;;;;;;29.95;18.77;;;14.80;96.10;;;;;;5000970;28;20038;-91
2021/03/30 09:27:56;;;;;;;29.33;18.20;;;15.00;95.80;;;;;;5034989;28;20033;-90
2021/03/30 09:30:24;;;;;;;25.30;17.55;;;15.10;95.80;;;;;;5001182;28;20036;-91
2021/03/30 09:32:53;;;;;;;26.98;17.65;;;15.30;95.70;;;;;;5000744;28;20045;-91
2021/03/30 09:35:28;;;;;;;27.73;18.23;;;15.40;95.40;;;;;;5000389;28;20045;-91
2021/03/30 09:38:05;;;;;;;24.00;16.35;;;15.50;95.10;;;;;;5034720;28;20437;-91
2021/03/30 09:41:10;;;;;;;23.27;15.40;;;15.60;94.90;;;;;;5038133;28;20037;-90
2021/03/30 09:43:39;;;;;;;22.23;14.85;;;15.80;94.80;;;;;;5021752;28;20460;-91
2021/03/30 09:46:23;;;;;;;22.17;14.98;;;15.90;94.90;;;;;;5021045;28;20048;-91
2021/03/30 09:48:52;;;;;;;23.33;16.05;;;16.60;94.90;;;;;;5021115;28;20493;-91
2021/03/30 09:51:27;;;;;;;19.67;12.98;;;18.00;92.90;;;;;;5006151;28;20045;-92
2021/03/30 09:53:59;;;;;;;18.90;12.45;;;19.50;91.40;;;;;;5021998;28;20044;-91
2021/03/30 09:56:31;;;;;;;21.02;14.38;;;21.10;87.80;;;;;;5021671;28;20037;-92
2021/03/30 09:59:00;;;;;;;22.30;14.07;;;22.40;82.80;;;;;;5024420;28;20056;-92
2021/03/30 10:01:52;;;;;;;15.23;10.80;;;23.30;80.70;;;;;;5041206;28;20049;-93
2021/03/30 10:04:33;;;;;;;15.17;11.00;;;24.10;78.50;;;;;;5052199;28;20029;-92
2021/03/30 10:07:11;;;;;;;15.45;10.60;;;24.70;75.60;;;;;;5041500;28;20029;-92
2021/03/30 10:10:23;;;;;;;16.63;11.23;;;25.10;72.80;;;;;;5040384;28;20055;-92
2021/03/30 10:13:06;;;;;;;16.13;10.13;;;25.70;71.10;;;;;;5057970;28;20040;-92
2021/03/30 10:15:45;;;;;;;13.90;9.32;;;26.20;68.90;;;;;;5040299;28;20037;-92
2021/03/30 10:18:15;;;;;;;13.18;9.07;;;26.30;66.70;;;;;;5040337;28;20079;-92
2021/03/30 10:20:51;;;;;;;16.88;9.50;;;26.50;63.80;;;;;;5024248;28;20423;-91
2021/03/30 10:23:22;;;;;;;21.70;14.50;;;26.80;60.70;;;;;;5040467;28;20094;-92
2021/03/30 10:25:51;;;;;;;15.25;10.45;;;26.90;59.60;;;;;;5039844;28;20029;-92
2021/03/30 10:28:31;;;;;;;18.15;12.27;;;27.10;59.70;;;;;;5024592;28;20033;-90
2021/03/30 10:31:14;;;;;;;16.27;10.18;;;27.50;58.80;;;;;;5040147;28;20090;-91
2021/03/30 10:33:44;;;;;;;18.83;12.50;;;27.60;58.60;;;;;;5039719;28;20078;-91
2021/03/30 10:36:19;;;;;;;15.80;10.13;;;27.40;55.50;;;;;;5040021;28;20037;-91
2021/03/30 10:39:24;;;;;;;16.17;11.30;;;27.50;55.90;;;;;;5036435;28;20098;-91
2021/03/30 10:42:05;;;;;;;19.08;10.95;;;27.80;55.00;;;;;;5037198;28;20067;-91
2021/03/30 10:47:33;;;;;;;13.93;10.68;;;28.20;52.50;;;;;;5055481;28;20052;-91
2021/03/30 10:50:06;;;;;;;17.25;12.27;;;27.70;52.10;;;;;;5049495;28;20036;-90
2021/03/30 10:52:35;;;;;;;13.52;9.93;;;27.70;52.80;;;;;;5060067;28;20035;-90
2021/03/30 10:55:10;;;;;;;15.68;11.48;;;28.00;53.80;;;;;;5061690;28;20037;-91
2021/03/30 10:57:38;;;;;;;12.70;9.38;;;28.20;52.70;;;;;;5076852;28;20016;-88
2021/03/30 11:00:09;;;;;;;14.75;11.15;;;28.30;53.30;;;;;;5096120;28;20048;-88
2021/03/30 11:02:46;;;;;;;14.40;9.52;;;28.60;52.90;;;;;;5064245;28;20056;-89
2021/03/30 11:05:17;;;;;;;15.85;11.32;;;28.80;52.10;;;;;;5069563;28;20035;-89
2021/03/30 11:07:54;;;;;;;16.27;11.02;;;28.40;52.30;;;;;;5072678;28;20033;-87
2021/03/30 11:10:33;;;;;;;16.55;11.20;;;28.30;52.50;;;;;;5068982;28;20028;-88
2021/03/30 11:12:59;;;;;;;11.88;8.73;;;28.50;52.40;;;;;;5036352;28;20480;-90
2021/03/30 11:15:32;;;;;;;14.45;9.82;;;28.60;52.20;;;;;;5060177;28;20045;-89
2021/03/30 11:18:14;;;;;;;17.63;12.85;;;28.80;52.10;;;;;;5037902;28;20083;-91
2021/03/30 11:20:40;;;;;;;16.88;11.77;;;28.80;51.20;;;;;;5039190;28;20037;-91
2021/03/30 11:23:13;;;;;;;14.68;10.15;;;28.90;52.20;;;;;;5056777;28;20033;-89
2021/03/30 11:25:40;;;;;;;16.33;10.48;;;29.30;52.80;;;;;;5039658;28;20032;-90
2021/03/30 11:28:13;;;;;;;13.98;10.40;;;29.40;52.60;;;;;;5044424;28;20037;-90
2021/03/30 11:31:18;;;;;;;14.55;10.20;;;29.70;51.10;;;;;;5038322;28;20033;-90
2021/03/30 11:33:50;;;;;;;17.27;11.73;;;29.60;50.40;;;;;;5029146;28;20033;-90
2021/03/30 11:36:20;;;;;;;12.85;9.88;;;29.60;51.40;;;;;;5036697;28;20026;-87
2021/03/30 11:42:09;;;;;;;17.08;12.55;;;30.30;50.00;;;;;;5041512;28;20099;-89
2021/03/30 11:44:42;;;;;;;12.98;9.63;;;30.40;48.30;;;;;;5055811;28;20029;-89
2021/03/30 11:47:12;;;;;;;15.00;9.80;;;30.40;48.80;;;;;;5037033;28;20099;-89
2021/03/30 11:49:39;;;;;;;17.83;12.02;;;30.40;48.40;;;;;;5037646;28;20037;-90
2021/03/30 11:52:15;;;;;;;16.88;12.10;;;30.40;48.30;;;;;;5021320;28;20053;-90
2021/03/30 11:54:42;;;;;;;16.58;11.95;;;30.30;47.50;;;;;;5038289;28;20349;-90
2021/03/30 11:57:08;;;;;;;15.75;10.32;;;30.20;47.40;;;;;;5038176;28;20064;-90
2021/03/30 11:59:47;;;;;;;;;;;;;;;;;;;;;
2021/03/30 12:02:19;;;;;;;14.88;11.07;;;30.10;46.50;;;;;;5054724;28;20032;-90
2021/03/30 12:04:45;;;;;;;13.77;10.60;;;30.00;47.80;;;;;;5038318;28;20040;-90
2021/03/30 12:07:51;;;;;;;;;;;;;;;;;;;;;
2021/03/30 12:10:32;;;;;;;17.42;10.80;;;30.30;46.80;;;;;;4984957;28;20038;-90
2021/03/30 12:13:12;;;;;;;16.13;12.18;;;30.70;44.80;;;;;;5036947;28;20033;-90
2021/03/30 12:15:50;;;;;;;16.73;12.77;;;30.80;43.90;;;;;;5036633;28;20032;-91
2021/03/30 12:18:22;;;;;;;12.60;9.43;;;30.80;42.80;;;;;;5037695;28;20041;-90
2021/03/30 12:21:18;;;;;;;12.55;8.88;;;30.90;43.10;;;;;;5037377;28;20056;-90
2021/03/30 12:31:02;;;;;;;20.23;14.07;;;31.40;42.20;;;;;;4931625;29;20039;-91
2021/03/30 12:33:58;;;;;;;21.90;15.57;;;31.10;41.40;;;;;;4898762;29;20129;-91
2021/03/30 12:40:18;;;;;;;18.00;14.00;;;30.80;43.90;;;;;;4864996;29;20074;-91
2021/03/30 12:43:16;;;;;;;22.45;17.20;;;30.70;43.70;;;;;;4876390;29;20121;-91
2021/03/30 12:46:18;;;;;;;16.65;12.25;;;30.30;44.10;;;;;;4935254;29;20063;-90
2021/03/30 12:49:08;;;;;;;;;;;;;;;;;;;;;
2021/03/30 12:51:53;;;;;;;24.67;17.17;;;29.50;46.20;;;;;;4948515;29;20051;-91
2021/03/30 12:54:22;;;;;;;20.27;13.98;;;29.00;45.90;;;;;;4990688;28;20041;-90
2021/03/30 12:59:41;;;;;;;14.75;10.38;;;29.30;46.60;;;;;;4986044;28;20529;-88
2021/03/30 13:02:10;;;;;;;15.77;11.65;;;29.90;45.20;;;;;;4985199;28;20044;-89
2021/03/30 13:04:43;;;;;;;23.98;15.32;;;30.40;46.30;;;;;;4998734;28;20060;-90
2021/03/30 13:07:17;;;;;;;15.77;11.60;;;30.70;44.20;;;;;;5042431;28;20086;-90
2021/03/30 13:09:43;;;;;;;14.88;10.50;;;31.10;44.70;;;;;;5045007;28;20171;-90
2021/03/30 13:12:32;;;;;;;12.32;8.85;;;31.40;45.10;;;;;;5045801;28;20100;-90
2021/03/30 13:15:47;;;;;;;12.82;9.30;;;31.80;45.30;;;;;;5030447;28;20036;-90
2021/03/30 13:18:21;;;;;;;14.52;9.05;;;32.30;43.60;;;;;;5007789;28;20041;-91
2021/03/30 13:21:02;;;;;;;12.38;9.18;;;32.40;42.00;;;;;;5063108;28;20044;-90
2021/03/30 13:23:49;;;;;;;11.25;8.45;;;32.50;42.30;;;;;;5038701;28;20043;-92
2021/03/30 13:26:15;;;;;;;12.13;7.60;;;32.50;42.40;;;;;;5049215;28;20095;-91
2021/03/30 13:28:55;;;;;;;;;;;;;;;;;;;;;
2021/03/30 13:31:25;;;;;;;13.88;9.18;;;31.70;42.60;;;;;;5042367;28;20033;-91
2021/03/30 13:33:51;;;;;;;11.55;8.43;;;31.30;43.30;;;;;;5033420;28;20081;-89
2021/03/30 13:36:29;;;;;;;10.02;7.45;;;31.20;44.30;;;;;;5029288;28;20041;-90
2021/03/30 13:39:08;;;;;;;;;;;;;;;;;;;;;
2021/03/30 13:41:46;;;;;;;;;;;;;;;;;;;;;
2021/03/30 13:44:18;;;;;;;11.23;7.53;;;31.60;43.60;;;;;;5054399;28;20029;-90
2021/03/30 13:47:05;;;;;;;14.23;10.38;;;31.60;43.20;;;;;;5036903;28;20056;-89